sensor_id;sensor_type;location;lat;lon;timestamp;temperature;humidity
2701;DHT22;1360;48.796;9.204;2022-07-29T00:01:13;19.80;99.90
2701;DHT22;1360;48.796;9.204;2022-07-29T00:03:40;19.70;99.90
2701;DHT22;1360;48.796;9.204;2022-07-29T00:06:07;19.60;99.90
2701;DHT22;1360;48.796;9.204;2022-07-29T00:08:33;19.70;99.90
2701;DHT22;1360;48.796;9.204;2022-07-29T00:11:00;19.70;99.90
2701;DHT22;1360;48.796;9.204;2022-07-29T00:13:27;19.80;99.90
2701;DHT22;1360;48.796;9.204;2022-07-29T00:15:55;19.80;99.90
2701;DHT22;1360;48.796;9.204;2022-07-29T00:18:21;19.80;99.90
2701;DHT22;1360;48.796;9.204;2022-07-29T00:20:48;19.70;99.90
2701;DHT22;1360;48.796;9.204;2022-07-29T00:23:14;19.80;99.90
2701;DHT22;1360;48.796;9.204;2022-07-29T00:25:41;19.70;99.90
2701;DHT22;1360;48.796;9.204;2022-07-29T00:28:08;19.60;99.90
2701;DHT22;1360;48.796;9.204;2022-07-29T00:30:34;19.50;99.90
2701;DHT22;1360;48.796;9.204;2022-07-29T00:33:02;19.50;99.90
2701;DHT22;1360;48.796;9.204;2022-07-29T00:35:29;19.40;99.90
2701;DHT22;1360;48.796;9.204;2022-07-29T00:40:37;19.40;99.90
2701;DHT22;1360;48.796;9.204;2022-07-29T00:43:04;19.40;99.90
2701;DHT22;1360;48.796;9.204;2022-07-29T00:45:30;19.40;99.90
2701;DHT22;1360;48.796;9.204;2022-07-29T00:47:57;19.40;99.90
2701;DHT22;1360;48.796;9.204;2022-07-29T00:50:25;19.30;99.90
2701;DHT22;1360;48.796;9.204;2022-07-29T00:52:52;19.30;99.90
2701;DHT22;1360;48.796;9.204;2022-07-29T00:55:19;19.40;99.90
2701;DHT22;1360;48.796;9.204;2022-07-29T00:57:45;19.30;99.90
2701;DHT22;1360;48.796;9.204;2022-07-29T01:00:14;19.30;99.90
2701;DHT22;1360;48.796;9.204;2022-07-29T01:02:42;19.40;99.90
2701;DHT22;1360;48.796;9.204;2022-07-29T01:05:09;19.40;99.90
2701;DHT22;1360;48.796;9.204;2022-07-29T01:10:06;19.40;99.90
2701;DHT22;1360;48.796;9.204;2022-07-29T01:12:33;19.50;99.90
2701;DHT22;1360;48.796;9.204;2022-07-29T01:17:28;19.30;99.90
2701;DHT22;1360;48.796;9.204;2022-07-29T01:19:58;19.30;99.90
2701;DHT22;1360;48.796;9.204;2022-07-29T01:22:28;19.30;99.90
2701;DHT22;1360;48.796;9.204;2022-07-29T01:27:31;19.30;99.90
2701;DHT22;1360;48.796;9.204;2022-07-29T01:37:23;19.30;99.90
2701;DHT22;1360;48.796;9.204;2022-07-29T01:39:53;19.30;99.90
2701;DHT22;1360;48.796;9.204;2022-07-29T01:42:23;19.20;99.90
2701;DHT22;1360;48.796;9.204;2022-07-29T01:44:54;19.20;99.90
2701;DHT22;1360;48.796;9.204;2022-07-29T01:47:23;19.20;99.90
2701;DHT22;1360;48.796;9.204;2022-07-29T03:13:14;18.90;99.90
2701;DHT22;1360;48.796;9.204;2022-07-29T03:15:42;18.90;99.90
2701;DHT22;1360;48.796;9.204;2022-07-29T03:18:09;18.90;99.90
2701;DHT22;1360;48.796;9.204;2022-07-29T03:20:36;19.00;99.90
2701;DHT22;1360;48.796;9.204;2022-07-29T03:23:03;19.00;99.90
2701;DHT22;1360;48.796;9.204;2022-07-29T03:25:30;18.90;99.90
2701;DHT22;1360;48.796;9.204;2022-07-29T03:27:56;18.90;99.90
2701;DHT22;1360;48.796;9.204;2022-07-29T03:30:24;19.00;99.90
2701;DHT22;1360;48.796;9.204;2022-07-29T03:40:13;18.80;99.90
2701;DHT22;1360;48.796;9.204;2022-07-29T03:45:09;18.80;99.90
2701;DHT22;1360;48.796;9.204;2022-07-29T03:47:38;18.70;99.90
2701;DHT22;1360;48.796;9.204;2022-07-29T03:50:06;18.70;99.90
2701;DHT22;1360;48.796;9.204;2022-07-29T03:52:34;18.80;99.90
2701;DHT22;1360;48.796;9.204;2022-07-29T03:55:01;18.90;99.90
2701;DHT22;1360;48.796;9.204;2022-07-29T03:57:28;19.00;99.90
2701;DHT22;1360;48.796;9.204;2022-07-29T03:59:56;19.00;99.90
2701;DHT22;1360;48.796;9.204;2022-07-29T04:02:23;18.90;99.90
2701;DHT22;1360;48.796;9.204;2022-07-29T04:04:52;18.90;99.90
2701;DHT22;1360;48.796;9.204;2022-07-29T04:07:18;18.80;99.90
2701;DHT22;1360;48.796;9.204;2022-07-29T04:09:45;18.80;99.90
2701;DHT22;1360;48.796;9.204;2022-07-29T04:12:12;18.90;99.90
2701;DHT22;1360;48.796;9.204;2022-07-29T04:14:38;18.80;99.90
2701;DHT22;1360;48.796;9.204;2022-07-29T04:17:05;18.70;99.90
2701;DHT22;1360;48.796;9.204;2022-07-29T04:19:32;18.70;99.90
2701;DHT22;1360;48.796;9.204;2022-07-29T04:22:00;18.70;99.90
2701;DHT22;1360;48.796;9.204;2022-07-29T04:24:27;18.80;99.90
2701;DHT22;1360;48.796;9.204;2022-07-29T04:26:54;18.90;99.90
2701;DHT22;1360;48.796;9.204;2022-07-29T04:31:47;18.90;99.90
2701;DHT22;1360;48.796;9.204;2022-07-29T04:34:14;18.90;99.90
2701;DHT22;1360;48.796;9.204;2022-07-29T05:25:45;20.40;99.90
2701;DHT22;1360;48.796;9.204;2022-07-29T05:28:12;20.40;99.90
2701;DHT22;1360;48.796;9.204;2022-07-29T05:30:39;20.50;99.90
2701;DHT22;1360;48.796;9.204;2022-07-29T05:33:05;20.70;99.90
2701;DHT22;1360;48.796;9.204;2022-07-29T05:35:32;20.70;99.90
2701;DHT22;1360;48.796;9.204;2022-07-29T05:38:00;20.80;99.90
2701;DHT22;1360;48.796;9.204;2022-07-29T05:40:26;20.90;99.90
2701;DHT22;1360;48.796;9.204;2022-07-29T14:50:31;24.70;99.90
2701;DHT22;1360;48.796;9.204;2022-07-29T15:17:29;24.30;99.90
2701;DHT22;1360;48.796;9.204;2022-07-29T15:22:23;24.30;99.90
2701;DHT22;1360;48.796;9.204;2022-07-29T15:24:49;24.30;99.90
2701;DHT22;1360;48.796;9.204;2022-07-29T15:27:16;24.30;99.90
2701;DHT22;1360;48.796;9.204;2022-07-29T15:29:43;24.20;99.90
2701;DHT22;1360;48.796;9.204;2022-07-29T15:32:10;24.10;99.90
2701;DHT22;1360;48.796;9.204;2022-07-29T15:34:38;24.10;99.90
2701;DHT22;1360;48.796;9.204;2022-07-29T15:39:31;24.00;99.90
2701;DHT22;1360;48.796;9.204;2022-07-29T15:44:25;23.90;99.90
2701;DHT22;1360;48.796;9.204;2022-07-29T15:49:32;23.80;99.90
2701;DHT22;1360;48.796;9.204;2022-07-29T15:52:00;23.80;99.90
2701;DHT22;1360;48.796;9.204;2022-07-29T15:54:28;23.80;99.90
2701;DHT22;1360;48.796;9.204;2022-07-29T16:06:43;23.90;99.90
2701;DHT22;1360;48.796;9.204;2022-07-29T16:14:06;24.00;99.90
2701;DHT22;1360;48.796;9.204;2022-07-29T16:21:28;24.10;99.90
2701;DHT22;1360;48.796;9.204;2022-07-29T16:23:55;24.10;99.90
2701;DHT22;1360;48.796;9.204;2022-07-29T16:26:22;24.10;99.90
2701;DHT22;1360;48.796;9.204;2022-07-29T16:28:49;24.20;99.90
2701;DHT22;1360;48.796;9.204;2022-07-29T16:31:17;24.20;99.90
2701;DHT22;1360;48.796;9.204;2022-07-29T16:38:41;24.00;99.90
2701;DHT22;1360;48.796;9.204;2022-07-29T16:48:29;23.90;99.90
2701;DHT22;1360;48.796;9.204;2022-07-29T16:50:56;23.90;99.90
2701;DHT22;1360;48.796;9.204;2022-07-29T16:53:25;24.00;99.90
2701;DHT22;1360;48.796;9.204;2022-07-29T16:55:51;24.00;99.90
2701;DHT22;1360;48.796;9.204;2022-07-29T16:58:18;23.90;99.90
2701;DHT22;1360;48.796;9.204;2022-07-29T17:03:12;23.90;99.90
2701;DHT22;1360;48.796;9.204;2022-07-29T17:08:07;23.90;99.90
2701;DHT22;1360;48.796;9.204;2022-07-29T17:10:34;23.90;99.90
2701;DHT22;1360;48.796;9.204;2022-07-29T17:13:00;24.10;99.90
2701;DHT22;1360;48.796;9.204;2022-07-29T17:15:27;24.00;99.90
2701;DHT22;1360;48.796;9.204;2022-07-29T17:17:53;24.00;99.90
2701;DHT22;1360;48.796;9.204;2022-07-29T17:20:20;24.00;99.90
2701;DHT22;1360;48.796;9.204;2022-07-29T17:22:47;24.10;99.90
2701;DHT22;1360;48.796;9.204;2022-07-29T17:25:15;24.20;99.90
2701;DHT22;1360;48.796;9.204;2022-07-29T17:30:09;24.30;99.90
2701;DHT22;1360;48.796;9.204;2022-07-29T17:32:36;24.30;99.90
2701;DHT22;1360;48.796;9.204;2022-07-29T17:35:04;24.20;99.90
2701;DHT22;1360;48.796;9.204;2022-07-29T17:37:52;24.20;99.90
2701;DHT22;1360;48.796;9.204;2022-07-29T17:42:47;24.20;99.90
2701;DHT22;1360;48.796;9.204;2022-07-29T17:45:14;24.10;99.90
2701;DHT22;1360;48.796;9.204;2022-07-29T17:47:41;24.20;99.90
2701;DHT22;1360;48.796;9.204;2022-07-29T17:50:08;24.10;99.90
2701;DHT22;1360;48.796;9.204;2022-07-29T17:52:35;24.10;99.90
2701;DHT22;1360;48.796;9.204;2022-07-29T17:55:03;24.10;99.90
2701;DHT22;1360;48.796;9.204;2022-07-29T17:57:30;24.10;99.90
2701;DHT22;1360;48.796;9.204;2022-07-29T17:59:59;24.10;99.90
2701;DHT22;1360;48.796;9.204;2022-07-29T18:02:26;24.10;99.90
2701;DHT22;1360;48.796;9.204;2022-07-29T18:04:52;24.10;99.90
2701;DHT22;1360;48.796;9.204;2022-07-29T18:09:46;24.10;99.90
2701;DHT22;1360;48.796;9.204;2022-07-29T18:12:12;24.10;99.90
2701;DHT22;1360;48.796;9.204;2022-07-29T18:17:09;24.10;99.90
2701;DHT22;1360;48.796;9.204;2022-07-29T18:24:31;24.10;99.90
2701;DHT22;1360;48.796;9.204;2022-07-29T18:29:25;24.00;99.90
2701;DHT22;1360;48.796;9.204;2022-07-29T18:31:53;23.80;99.90
2701;DHT22;1360;48.796;9.204;2022-07-29T18:34:21;23.80;99.90
2701;DHT22;1360;48.796;9.204;2022-07-29T18:36:47;23.60;99.90
2701;DHT22;1360;48.796;9.204;2022-07-29T18:46:36;23.20;99.90
2701;DHT22;1360;48.796;9.204;2022-07-29T18:49:02;23.10;99.90
2701;DHT22;1360;48.796;9.204;2022-07-29T18:51:30;23.00;99.90
2701;DHT22;1360;48.796;9.204;2022-07-29T19:01:18;22.60;99.90
2701;DHT22;1360;48.796;9.204;2022-07-29T19:03:45;22.70;99.90
2701;DHT22;1360;48.796;9.204;2022-07-29T19:06:12;22.60;99.90
2701;DHT22;1360;48.796;9.204;2022-07-29T20:29:38;20.70;99.90
2701;DHT22;1360;48.796;9.204;2022-07-29T20:34:32;20.60;99.90
2701;DHT22;1360;48.796;9.204;2022-07-29T20:59:04;20.10;99.90
2701;DHT22;1360;48.796;9.204;2022-07-29T21:01:31;20.00;99.90
2701;DHT22;1360;48.796;9.204;2022-07-29T21:03:58;19.90;99.90
2701;DHT22;1360;48.796;9.204;2022-07-29T21:08:52;19.90;99.90
2701;DHT22;1360;48.796;9.204;2022-07-29T21:11:20;19.90;99.90
2701;DHT22;1360;48.796;9.204;2022-07-29T21:13:47;19.80;99.90
2701;DHT22;1360;48.796;9.204;2022-07-29T21:16:15;19.70;99.90
2701;DHT22;1360;48.796;9.204;2022-07-29T21:18:43;19.70;99.90
2701;DHT22;1360;48.796;9.204;2022-07-29T21:21:11;19.60;99.90
2701;DHT22;1360;48.796;9.204;2022-07-29T21:23:38;19.60;99.90
2701;DHT22;1360;48.796;9.204;2022-07-29T21:26:05;19.60;99.90
2701;DHT22;1360;48.796;9.204;2022-07-29T21:28:32;19.50;99.90
2701;DHT22;1360;48.796;9.204;2022-07-29T21:31:04;19.50;99.90
2701;DHT22;1360;48.796;9.204;2022-07-29T21:33:32;19.60;99.90
2701;DHT22;1360;48.796;9.204;2022-07-29T21:40:53;19.70;99.90
2701;DHT22;1360;48.796;9.204;2022-07-29T21:43:20;19.70;99.90
2701;DHT22;1360;48.796;9.204;2022-07-29T21:45:47;19.60;99.90
2701;DHT22;1360;48.796;9.204;2022-07-29T21:48:14;19.50;99.90
2701;DHT22;1360;48.796;9.204;2022-07-29T21:55:36;19.40;99.90
2701;DHT22;1360;48.796;9.204;2022-07-29T21:58:03;19.40;99.90
2701;DHT22;1360;48.796;9.204;2022-07-29T22:00:30;19.40;99.90
2701;DHT22;1360;48.796;9.204;2022-07-29T22:02:58;19.30;99.90
2701;DHT22;1360;48.796;9.204;2022-07-29T22:05:25;19.20;99.90
2701;DHT22;1360;48.796;9.204;2022-07-29T22:44:38;18.70;99.90
2701;DHT22;1360;48.796;9.204;2022-07-29T22:47:05;18.70;99.90
2701;DHT22;1360;48.796;9.204;2022-07-29T22:49:31;18.60;99.90
2701;DHT22;1360;48.796;9.204;2022-07-29T22:51:58;18.60;99.90
2701;DHT22;1360;48.796;9.204;2022-07-29T22:56:52;18.60;99.90
2701;DHT22;1360;48.796;9.204;2022-07-29T22:59:19;18.60;99.90
2701;DHT22;1360;48.796;9.204;2022-07-29T23:01:47;18.60;99.90
2701;DHT22;1360;48.796;9.204;2022-07-29T23:43:28;18.20;99.90
2701;DHT22;1360;48.796;9.204;2022-07-29T23:45:54;18.20;99.90
2701;DHT22;1360;48.796;9.204;2022-07-29T23:48:21;18.10;99.90
2701;DHT22;1360;48.796;9.204;2022-07-29T23:50:47;18.10;99.90
2701;DHT22;1360;48.796;9.204;2022-07-29T23:53:14;18.10;99.90
2701;DHT22;1360;48.796;9.204;2022-07-29T23:55:41;18.10;99.90
2701;DHT22;1360;48.796;9.204;2022-07-29T23:58:08;18.10;99.90
